Time;durP1;ratioP1;P1;durP2;ratioP2;P2;SDS_P1;SDS_P2;PMS_P1;PMS_P2;Temp;Humidity;BMP_temperature;BMP_pressure;BME280_temperature;BME280_humidity;BME280_pressure;Samples;Min_cycle;Max_cycle;Signal;HPM_P1;HPM_P2
2023/07/20 00:01:06;;;;;;;;;;;17.60;76.90;;;;;;4969091;28;19930;-77
2023/07/20 00:03:32;;;;;;;;;;;17.60;77.00;;;;;;4972760;28;19914;-77
2023/07/20 00:05:58;;;;;;;;;;;17.60;76.90;;;;;;4972808;28;19918;-77
2023/07/20 00:08:23;;;;;;;;;;;17.60;76.80;;;;;;4972682;28;19983;-77
2023/07/20 00:10:49;;;;;;;;;;;17.60;76.70;;;;;;4971398;28;19929;-77
2023/07/20 00:13:15;;;;;;;;;;;17.70;76.70;;;;;;4987486;28;19918;-77
2023/07/20 00:15:41;;;;;;;;;;;17.60;76.50;;;;;;4987245;28;19921;-76
2023/07/20 00:18:07;;;;;;;;;;;17.60;76.40;;;;;;4972533;28;19914;-75
2023/07/20 00:20:33;;;;;;;;;;;17.50;76.30;;;;;;4972469;28;19910;-75
2023/07/20 00:22:58;;;;;;;;;;;17.40;76.30;;;;;;4972670;28;20422;-75
2023/07/20 00:25:24;;;;;;;;;;;17.40;76.30;;;;;;4972306;28;19914;-75
2023/07/20 00:27:50;;;;;;;;;;;17.30;76.30;;;;;;4972289;28;19924;-75
2023/07/20 00:30:16;;;;;;;;;;;17.20;76.30;;;;;;4972042;28;20045;-75
2023/07/20 00:32:44;;;;;;;;;;;17.10;76.30;;;;;;4972769;28;20052;-75
2023/07/20 00:35:11;;;;;;;;;;;17.10;76.50;;;;;;4954698;28;19914;-75
2023/07/20 00:37:36;;;;;;;;;;;17.00;76.50;;;;;;4972173;28;20311;-76
2023/07/20 00:40:04;;;;;;;;;;;17.00;76.60;;;;;;4972027;28;20013;-76
2023/07/20 00:42:30;;;;;;;;;;;17.00;76.60;;;;;;4972125;28;19918;-76
2023/07/20 00:44:56;;;;;;;;;;;17.00;76.50;;;;;;4971995;28;20344;-75
2023/07/20 00:47:22;;;;;;;;;;;17.00;76.50;;;;;;4970636;28;19965;-75
2023/07/20 00:49:47;;;;;;;;;;;17.10;76.60;;;;;;4971796;28;19914;-75
2023/07/20 00:52:14;;;;;;;;;;;17.10;76.60;;;;;;4971862;28;20373;-75
2023/07/20 00:54:40;;;;;;;;;;;17.10;76.50;;;;;;4971702;28;19918;-75
2023/07/20 00:57:07;;;;;;;;;;;17.10;76.50;;;;;;4971885;28;20322;-75
2023/07/20 00:59:32;;;;;;;;;;;17.20;76.50;;;;;;4971831;28;20362;-75
2023/07/20 01:01:58;;;;;;;;;;;17.10;76.40;;;;;;4971776;28;19953;-75
2023/07/20 01:04:26;;;;;;;;;;;17.10;76.40;;;;;;4971655;28;19914;-75
2023/07/20 01:07:02;;;;;;;;;;;17.00;76.30;;;;;;4971742;28;19957;-75
2023/07/20 01:09:31;;;;;;;;;;;17.00;76.40;;;;;;4954196;28;20005;-75
2023/07/20 01:12:06;;;;;;;;;;;17.00;76.50;;;;;;4971694;28;19910;-75
2023/07/20 01:14:32;;;;;;;;;;;17.00;76.40;;;;;;4970264;28;19915;-75
2023/07/20 01:16:58;;;;;;;;;;;17.00;76.40;;;;;;4971945;28;20330;-74
2023/07/20 01:19:23;;;;;;;;;;;16.90;76.30;;;;;;4977645;28;19972;-75
2023/07/20 01:21:59;;;;;;;;;;;16.90;76.40;;;;;;4971643;28;19949;-75
2023/07/20 01:24:27;;;;;;;;;;;16.90;76.40;;;;;;4971540;28;20389;-76
2023/07/20 01:26:58;;;;;;;;;;;16.80;76.30;;;;;;4971462;28;19911;-75
2023/07/20 01:29:47;;;;;;;;;;;16.80;76.40;;;;;;4971043;28;20014;-76
2023/07/20 01:32:14;;;;;;;;;;;16.80;76.40;;;;;;4953851;28;19961;-76
2023/07/20 01:34:41;;;;;;;;;;;16.80;76.40;;;;;;4971037;28;20366;-75
2023/07/20 01:37:06;;;;;;;;;;;16.80;76.40;;;;;;4971265;28;20371;-75
2023/07/20 01:39:33;;;;;;;;;;;16.70;76.40;;;;;;4971244;28;19954;-76
2023/07/20 01:41:58;;;;;;;;;;;16.80;76.40;;;;;;4971105;28;19940;-76
2023/07/20 01:44:24;;;;;;;;;;;16.70;76.40;;;;;;4985989;28;20422;-76
2023/07/20 01:46:49;;;;;;;;;;;16.70;76.40;;;;;;4971199;28;19918;-75
2023/07/20 01:49:15;;;;;;;;;;;16.70;76.40;;;;;;4970795;28;19965;-75
2023/07/20 01:51:41;;;;;;;;;;;16.70;76.40;;;;;;4970973;28;19961;-75
2023/07/20 01:54:06;;;;;;;;;;;16.80;76.40;;;;;;4971005;28;19918;-75
2023/07/20 01:56:32;;;;;;;;;;;16.70;76.40;;;;;;4985885;28;20410;-75
2023/07/20 01:58:57;;;;;;;;;;;16.70;76.50;;;;;;4970668;28;19926;-75
2023/07/20 02:01:23;;;;;;;;;;;16.70;76.50;;;;;;4953232;28;19929;-75
2023/07/20 02:03:48;;;;;;;;;;;16.70;76.50;;;;;;4970592;28;20290;-75
2023/07/20 02:06:14;;;;;;;;;;;16.70;76.50;;;;;;4970621;28;19953;-75
2023/07/20 02:08:39;;;;;;;;;;;16.70;76.60;;;;;;4970404;28;19918;-75
2023/07/20 02:11:05;;;;;;;;;;;16.70;76.60;;;;;;4970608;28;19921;-75
2023/07/20 02:13:30;;;;;;;;;;;16.70;76.60;;;;;;4985416;28;19960;-75
2023/07/20 02:15:56;;;;;;;;;;;16.70;76.60;;;;;;4970318;28;19945;-75
2023/07/20 02:18:21;;;;;;;;;;;16.70;76.60;;;;;;4970336;28;19921;-75
2023/07/20 02:20:47;;;;;;;;;;;16.70;76.70;;;;;;4970470;28;19914;-75
2023/07/20 02:23:13;;;;;;;;;;;16.70;76.60;;;;;;4970211;28;19911;-75
2023/07/20 02:25:39;;;;;;;;;;;16.60;76.60;;;;;;4984739;28;19925;-75
2023/07/20 02:28:05;;;;;;;;;;;16.60;76.50;;;;;;4970044;28;19968;-75
2023/07/20 02:30:30;;;;;;;;;;;16.50;76.60;;;;;;4968900;28;20484;-75
2023/07/20 02:32:58;;;;;;;;;;;16.50;76.60;;;;;;4984990;28;19961;-75
2023/07/20 02:35:24;;;;;;;;;;;16.50;76.60;;;;;;4984868;28;19914;-75
2023/07/20 02:37:49;;;;;;;;;;;16.50;76.60;;;;;;4969974;28;19929;-75
2023/07/20 02:40:15;;;;;;;;;;;16.40;76.50;;;;;;4984806;28;20290;-75
2023/07/20 02:42:40;;;;;;;;;;;16.40;76.50;;;;;;4984788;28;19915;-75
2023/07/20 02:45:06;;;;;;;;;;;16.30;76.50;;;;;;4969937;28;20371;-75
2023/07/20 02:47:33;;;;;;;;;;;16.30;76.50;;;;;;4968555;28;19914;-75
2023/07/20 02:49:59;;;;;;;;;;;16.30;76.50;;;;;;4968282;28;19918;-75
2023/07/20 02:52:25;;;;;;;;;;;16.20;76.50;;;;;;4969712;28;20366;-75
2023/07/20 02:54:50;;;;;;;;;;;16.20;76.50;;;;;;4970319;28;19917;-75
2023/07/20 02:57:16;;;;;;;;;;;16.20;76.60;;;;;;4990658;28;19931;-75
2023/07/20 02:59:42;;;;;;;;;;;16.20;76.60;;;;;;4969770;28;19914;-75
2023/07/20 03:02:09;;;;;;;;;;;16.20;76.60;;;;;;4969623;28;19918;-76
2023/07/20 03:04:36;;;;;;;;;;;16.20;76.60;;;;;;4984255;28;19961;-75
2023/07/20 03:07:04;;;;;;;;;;;16.20;76.50;;;;;;4969584;28;19969;-75
2023/07/20 03:09:30;;;;;;;;;;;16.20;76.60;;;;;;4952294;28;19914;-75
2023/07/20 03:11:55;;;;;;;;;;;16.20;76.60;;;;;;4969516;28;20396;-75
2023/07/20 03:14:21;;;;;;;;;;;16.20;76.50;;;;;;4984387;28;19925;-75
2023/07/20 03:16:46;;;;;;;;;;;16.30;76.60;;;;;;4969417;28;19914;-75
2023/07/20 03:19:12;;;;;;;;;;;16.30;76.70;;;;;;4969308;28;20022;-75
2023/07/20 03:21:40;;;;;;;;;;;16.30;76.80;;;;;;4984520;28;20240;-75
2023/07/20 03:24:09;;;;;;;;;;;16.30;76.80;;;;;;4969235;28;19917;-75
2023/07/20 03:26:34;;;;;;;;;;;16.20;76.70;;;;;;4969269;28;19977;-75
2023/07/20 03:29:00;;;;;;;;;;;16.20;76.70;;;;;;4984109;28;20402;-75
2023/07/20 03:31:26;;;;;;;;;;;16.20;76.80;;;;;;4984161;28;19915;-75
2023/07/20 03:33:51;;;;;;;;;;;16.10;76.80;;;;;;4969145;28;19969;-75
2023/07/20 03:36:17;;;;;;;;;;;16.10;76.70;;;;;;4968373;28;19911;-75
2023/07/20 03:38:42;;;;;;;;;;;16.10;76.70;;;;;;4984021;28;19992;-75
2023/07/20 03:41:09;;;;;;;;;;;16.10;76.60;;;;;;4969120;28;19911;-75
2023/07/20 03:43:34;;;;;;;;;;;16.10;76.60;;;;;;4968955;28;19918;-75
2023/07/20 03:46:00;;;;;;;;;;;16.10;76.60;;;;;;4969420;28;19914;-75
2023/07/20 03:48:25;;;;;;;;;;;16.10;76.60;;;;;;4969092;28;19910;-75
2023/07/20 03:50:52;;;;;;;;;;;16.10;76.60;;;;;;4968963;28;19918;-76
2023/07/20 03:53:18;;;;;;;;;;;16.10;76.60;;;;;;4983770;28;20260;-76
2023/07/20 03:55:47;;;;;;;;;;;16.00;76.50;;;;;;4968862;28;19980;-75
2023/07/20 03:58:13;;;;;;;;;;;16.00;76.60;;;;;;4968889;28;19911;-75
2023/07/20 04:00:39;;;;;;;;;;;16.00;76.50;;;;;;4968860;28;19918;-75
2023/07/20 04:03:05;;;;;;;;;;;16.00;76.50;;;;;;4983837;28;19914;-75
2023/07/20 04:05:30;;;;;;;;;;;15.90;76.40;;;;;;4968716;28;19924;-75
2023/07/20 04:07:56;;;;;;;;;;;15.80;76.40;;;;;;4983953;28;19954;-75
2023/07/20 04:10:21;;;;;;;;;;;15.80;76.50;;;;;;4968938;28;19914;-75
2023/07/20 04:12:47;;;;;;;;;;;15.80;76.60;;;;;;4983821;28;20503;-75
2023/07/20 04:15:13;;;;;;;;;;;15.80;76.60;;;;;;4968837;28;19914;-75
2023/07/20 04:17:39;;;;;;;;;;;15.80;76.60;;;;;;4968881;28;19922;-75
2023/07/20 04:20:06;;;;;;;;;;;15.80;76.60;;;;;;4983452;28;19919;-75
2023/07/20 04:22:31;;;;;;;;;;;15.80;76.60;;;;;;4951411;28;19918;-76
2023/07/20 04:24:57;;;;;;;;;;;15.70;76.70;;;;;;4968659;28;20365;-76
2023/07/20 04:27:22;;;;;;;;;;;15.60;76.60;;;;;;4968709;28;19933;-76
2023/07/20 04:29:48;;;;;;;;;;;15.60;76.60;;;;;;4968876;28;19966;-75
2023/07/20 04:32:13;;;;;;;;;;;15.60;76.50;;;;;;4969223;28;19946;-75
2023/07/20 04:34:39;;;;;;;;;;;15.60;76.50;;;;;;4969623;28;20374;-75
2023/07/20 04:37:05;;;;;;;;;;;15.50;76.50;;;;;;4983768;28;20287;-75
2023/07/20 04:39:30;;;;;;;;;;;15.40;76.40;;;;;;4983500;28;19918;-75
2023/07/20 04:41:56;;;;;;;;;;;15.40;76.40;;;;;;4951396;28;19951;-75
2023/07/20 04:44:22;;;;;;;;;;;15.30;76.30;;;;;;4968552;28;19925;-75
2023/07/20 04:46:47;;;;;;;;;;;15.30;76.40;;;;;;4968504;28;19914;-75
2023/07/20 04:49:13;;;;;;;;;;;15.30;76.40;;;;;;4971512;28;20012;-75
2023/07/20 04:51:38;;;;;;;;;;;15.20;76.30;;;;;;4971961;28;19930;-75
2023/07/20 04:54:04;;;;;;;;;;;15.20;76.30;;;;;;4971960;28;19918;-75
2023/07/20 04:56:30;;;;;;;;;;;15.20;76.40;;;;;;4971783;28;19918;-75
2023/07/20 04:58:55;;;;;;;;;;;15.20;76.40;;;;;;4971495;28;19914;-75
2023/07/20 05:01:21;;;;;;;;;;;15.20;76.40;;;;;;4971906;28;19957;-75
2023/07/20 05:03:46;;;;;;;;;;;15.20;76.50;;;;;;4986739;28;20293;-75
2023/07/20 05:06:12;;;;;;;;;;;15.30;76.50;;;;;;4971647;28;20008;-75
2023/07/20 05:08:38;;;;;;;;;;;15.30;76.40;;;;;;4986419;28;19911;-75
2023/07/20 05:11:04;;;;;;;;;;;15.30;76.30;;;;;;4971624;28;19914;-75
2023/07/20 05:13:30;;;;;;;;;;;15.40;76.40;;;;;;4971344;28;19925;-75
2023/07/20 05:15:55;;;;;;;;;;;15.40;76.40;;;;;;4971106;28;19961;-75
2023/07/20 05:18:21;;;;;;;;;;;15.40;76.40;;;;;;4985958;28;19968;-75
2023/07/20 05:20:47;;;;;;;;;;;15.40;76.40;;;;;;4971183;28;20001;-75
2023/07/20 05:23:13;;;;;;;;;;;15.40;76.40;;;;;;4986248;28;19914;-75
2023/07/20 05:25:38;;;;;;;;;;;15.50;76.50;;;;;;4986338;28;20009;-75
2023/07/20 05:28:04;;;;;;;;;;;15.50;76.40;;;;;;4986139;28;19914;-75
2023/07/20 05:30:29;;;;;;;;;;;15.50;76.40;;;;;;4971189;28;19918;-75
2023/07/20 05:32:55;;;;;;;;;;;15.60;76.50;;;;;;4986007;28;19918;-75
2023/07/20 05:35:20;;;;;;;;;;;15.60;76.50;;;;;;4985864;28;19928;-75
2023/07/20 05:37:46;;;;;;;;;;;15.70;76.50;;;;;;4971191;28;19910;-75
2023/07/20 05:40:12;;;;;;;;;;;15.70;76.50;;;;;;4985856;28;19922;-75
2023/07/20 05:42:38;;;;;;;;;;;15.70;76.40;;;;;;4970946;28;20016;-75
2023/07/20 05:45:04;;;;;;;;;;;15.70;76.40;;;;;;4970614;28;19914;-75
2023/07/20 05:47:30;;;;;;;;;;;15.80;76.50;;;;;;4985681;28;19919;-75
2023/07/20 05:49:56;;;;;;;;;;;15.80;76.50;;;;;;4970834;28;19921;-75
2023/07/20 05:52:21;;;;;;;;;;;15.90;76.60;;;;;;4970786;28;19914;-75
2023/07/20 05:54:47;;;;;;;;;;;15.90;76.50;;;;;;4970782;28;19914;-75
2023/07/20 05:57:13;;;;;;;;;;;16.00;76.60;;;;;;4985659;28;20057;-75
2023/07/20 05:59:40;;;;;;;;;;;16.00;76.50;;;;;;4984602;28;19960;-75
2023/07/20 06:02:06;;;;;;;;;;;16.00;76.50;;;;;;4985341;28;20397;-75
2023/07/20 06:04:31;;;;;;;;;;;16.10;76.50;;;;;;4970343;28;19918;-75
2023/07/20 06:06:57;;;;;;;;;;;16.10;76.50;;;;;;4985519;28;19914;-75
2023/07/20 06:09:22;;;;;;;;;;;16.10;76.50;;;;;;4985921;28;19925;-75
2023/07/20 06:11:48;;;;;;;;;;;16.20;76.60;;;;;;4974913;28;20009;-75
2023/07/20 06:14:13;;;;;;;;;;;16.30;76.70;;;;;;4970202;28;19921;-75
2023/07/20 06:16:39;;;;;;;;;;;16.30;76.60;;;;;;4971006;28;19968;-75
2023/07/20 06:19:04;;;;;;;;;;;16.30;76.50;;;;;;4970902;28;19969;-75
2023/07/20 06:21:30;;;;;;;;;;;16.30;76.40;;;;;;4984996;28;19933;-75
2023/07/20 06:23:55;;;;;;;;;;;16.30;76.50;;;;;;4970104;28;19954;-75
2023/07/20 06:26:21;;;;;;;;;;;16.40;76.60;;;;;;4970109;28;19915;-74
2023/07/20 06:28:47;;;;;;;;;;;16.50;76.60;;;;;;4969904;28;20350;-75
2023/07/20 06:31:12;;;;;;;;;;;16.50;76.60;;;;;;4970025;28;19928;-75
2023/07/20 06:33:38;;;;;;;;;;;16.60;76.60;;;;;;4969668;28;20363;-75
2023/07/20 06:36:03;;;;;;;;;;;16.80;76.70;;;;;;4969927;28;19922;-75
2023/07/20 06:38:29;;;;;;;;;;;17.00;76.60;;;;;;4969992;28;20134;-76
2023/07/20 06:40:55;;;;;;;;;;;17.10;76.50;;;;;;4969849;28;19918;-75
2023/07/20 06:43:20;;;;;;;;;;;17.20;76.30;;;;;;4952603;28;20057;-75
2023/07/20 06:45:51;;;;;;;;;;;17.30;76.20;;;;;;4969719;28;19953;-75
2023/07/20 06:48:16;;;;;;;;;;;17.40;76.20;;;;;;4969684;28;20259;-75
2023/07/20 06:50:43;;;;;;;;;;;17.50;76.30;;;;;;4969619;28;19921;-75
2023/07/20 06:53:08;;;;;;;;;;;17.60;76.30;;;;;;4969610;28;20440;-74
2023/07/20 06:55:34;;;;;;;;;;;17.90;76.80;;;;;;4969428;28;19922;-75
2023/07/20 06:57:59;;;;;;;;;;;18.20;76.40;;;;;;4969625;28;20268;-76
2023/07/20 07:00:25;;;;;;;;;;;18.50;76.30;;;;;;4969353;28;19980;-74
2023/07/20 07:02:50;;;;;;;;;;;18.70;76.20;;;;;;4969181;28;19977;-75
2023/07/20 07:05:16;;;;;;;;;;;18.80;76.00;;;;;;4969298;28;19910;-71
2023/07/20 07:07:41;;;;;;;;;;;19.00;75.90;;;;;;4969444;28;19961;-75
2023/07/20 07:10:08;;;;;;;;;;;18.90;75.60;;;;;;4984056;28;19980;-75
2023/07/20 07:12:34;;;;;;;;;;;18.90;75.70;;;;;;4968435;28;19918;-75
2023/07/20 07:15:00;;;;;;;;;;;19.00;75.80;;;;;;4969130;28;19990;-75
2023/07/20 07:17:25;;;;;;;;;;;19.00;76.10;;;;;;4983726;28;20415;-75
2023/07/20 07:19:54;;;;;;;;;;;19.40;76.40;;;;;;4968929;28;19972;-75
2023/07/20 07:22:21;;;;;;;;;;;20.10;76.80;;;;;;4969093;28;19918;-75
2023/07/20 07:24:46;;;;;;;;;;;21.40;76.40;;;;;;4969136;28;20299;-75
2023/07/20 07:27:12;;;;;;;;;;;22.60;75.70;;;;;;4969146;28;19914;-75
2023/07/20 07:29:37;;;;;;;;;;;23.90;74.80;;;;;;4968850;28;20022;-75
2023/07/20 07:32:03;;;;;;;;;;;25.10;74.10;;;;;;4984035;28;19914;-75
2023/07/20 07:34:29;;;;;;;;;;;26.10;73.70;;;;;;4983703;28;19969;-76
2023/07/20 07:36:54;;;;;;;;;;;27.00;73.50;;;;;;4968798;28;19987;-76
2023/07/20 07:39:20;;;;;;;;;;;27.60;73.10;;;;;;4968574;28;19922;-76
2023/07/20 07:41:45;;;;;;;;;;;28.10;72.90;;;;;;4968896;28;19914;-76
2023/07/20 07:44:11;;;;;;;;;;;28.50;72.90;;;;;;4983878;28;20347;-76
2023/07/20 07:46:37;;;;;;;;;;;28.70;73.20;;;;;;4972364;28;20374;-76
2023/07/20 07:49:02;;;;;;;;;;;29.00;73.40;;;;;;4968881;28;20290;-76
2023/07/20 07:51:28;;;;;;;;;;;29.40;73.30;;;;;;4968904;28;19915;-75
2023/07/20 07:53:54;;;;;;;;;;;29.70;73.30;;;;;;4968491;28;19914;-75
2023/07/20 07:56:22;;;;;;;;;;;30.20;73.70;;;;;;4968567;28;19926;-75
2023/07/20 07:58:54;;;;;;;;;;;30.60;73.80;;;;;;4968520;28;19922;-75
2023/07/20 08:01:19;;;;;;;;;;;31.00;73.90;;;;;;4968565;28;19922;-76
2023/07/20 08:03:47;;;;;;;;;;;31.50;74.10;;;;;;4968660;28;19990;-76
2023/07/20 08:06:13;;;;;;;;;;;31.80;74.00;;;;;;4950929;28;19961;-75
2023/07/20 08:08:39;;;;;;;;;;;31.80;74.00;;;;;;4951121;28;20391;-75
2023/07/20 08:11:04;;;;;;;;;;;31.80;74.90;;;;;;4968210;28;19914;-75
2023/07/20 08:13:31;;;;;;;;;;;31.80;74.40;;;;;;4968232;28;20060;-75
2023/07/20 08:15:56;;;;;;;;;;;31.10;74.20;;;;;;4983125;28;20224;-75
2023/07/20 08:18:22;;;;;;;;;;;30.50;76.10;;;;;;4968023;28;20029;-75
2023/07/20 08:20:49;;;;;;;;;;;30.80;77.10;;;;;;4967855;28;19918;-75
2023/07/20 08:23:14;;;;;;;;;;;31.50;77.10;;;;;;4969693;28;20409;-75
2023/07/20 08:25:43;;;;;;;;;;;31.80;77.30;;;;;;4971708;28;20066;-75
2023/07/20 08:28:13;;;;;;;;;;;32.10;77.30;;;;;;4971378;28;20072;-75
2023/07/20 08:30:40;;;;;;;;;;;32.50;77.60;;;;;;4971558;28;20034;-75
2023/07/20 08:33:05;;;;;;;;;;;33.00;77.90;;;;;;4971564;28;20013;-76
2023/07/20 08:35:31;;;;;;;;;;;33.30;78.00;;;;;;4986442;28;20329;-76
2023/07/20 08:37:56;;;;;;;;;;;33.40;77.50;;;;;;4971730;28;19921;-68
2023/07/20 08:40:22;;;;;;;;;;;33.70;77.70;;;;;;4971307;28;19926;-76
2023/07/20 08:42:47;;;;;;;;;;;33.80;77.00;;;;;;4971529;28;20012;-76
2023/07/20 08:45:13;;;;;;;;;;;33.40;76.40;;;;;;4971270;28;20179;-74
2023/07/20 08:47:41;;;;;;;;;;;33.10;76.80;;;;;;4986303;28;19914;-76
2023/07/20 08:50:07;;;;;;;;;;;32.60;76.40;;;;;;4971288;28;19910;-75
2023/07/20 08:52:34;;;;;;;;;;;32.10;76.50;;;;;;4985984;28;19918;-76
2023/07/20 08:55:03;;;;;;;;;;;32.10;77.10;;;;;;4971227;28;20381;-76
2023/07/20 08:57:29;;;;;;;;;;;32.20;76.90;;;;;;4971460;28;19964;-76
2023/07/20 08:59:55;;;;;;;;;;;31.80;76.40;;;;;;4971194;28;20278;-76
2023/07/20 09:02:25;;;;;;;;;;;31.20;76.40;;;;;;4971146;28;19914;-76
2023/07/20 09:04:50;;;;;;;;;;;30.40;76.30;;;;;;4970950;28;19968;-76
2023/07/20 09:07:16;;;;;;;;;;;29.40;76.40;;;;;;4971058;28;20332;-76
2023/07/20 09:09:42;;;;;;;;;;;28.50;76.70;;;;;;4985969;28;20012;-76
2023/07/20 09:12:14;;;;;;;;;;;27.70;76.90;;;;;;4971115;28;19958;-76
2023/07/20 09:14:42;;;;;;;;;;;26.90;77.00;;;;;;4970666;28;19914;-76
2023/07/20 09:17:12;;;;;;;;;;;26.10;77.10;;;;;;4970657;28;20334;-76
2023/07/20 09:19:38;;;;;;;;;;;25.50;77.30;;;;;;4970502;28;19914;-77
2023/07/20 09:22:05;;;;;;;;;;;25.00;77.30;;;;;;4971071;28;20001;-76
2023/07/20 09:24:31;;;;;;;;;;;24.50;77.50;;;;;;4971615;28;20005;-76
2023/07/20 09:26:57;;;;;;;;;;;24.10;77.60;;;;;;4971143;28;19926;-76
2023/07/20 09:29:23;;;;;;;;;;;23.80;77.80;;;;;;4950798;28;19926;-76
2023/07/20 09:32:02;;;;;;;;;;;23.50;77.80;;;;;;4962405;28;20341;-78
2023/07/20 09:34:33;;;;;;;;;;;23.30;77.70;;;;;;4972004;28;20001;-78
2023/07/20 09:37:00;;;;;;;;;;;23.10;77.80;;;;;;4988164;28;20013;-79
2023/07/20 09:39:26;;;;;;;;;;;23.00;78.00;;;;;;4973718;28;19914;-79
2023/07/20 09:41:52;;;;;;;;;;;23.00;78.30;;;;;;4974292;28;19918;-78
2023/07/20 09:44:17;;;;;;;;;;;23.20;78.40;;;;;;4983861;28;20409;-79
2023/07/20 09:46:47;;;;;;;;;;;23.50;78.30;;;;;;4989166;28;19922;-78
2023/07/20 09:49:13;;;;;;;;;;;23.80;77.90;;;;;;4975775;28;20270;-79
2023/07/20 09:51:39;;;;;;;;;;;23.80;77.60;;;;;;4973753;28;19916;-79
2023/07/20 09:54:05;;;;;;;;;;;23.70;77.70;;;;;;4973079;28;19915;-79
2023/07/20 09:56:32;;;;;;;;;;;23.30;77.90;;;;;;4972860;28;20240;-79
2023/07/20 09:58:58;;;;;;;;;;;23.10;78.50;;;;;;4972573;28;19917;-79
2023/07/20 10:01:24;;;;;;;;;;;22.90;79.10;;;;;;4972952;28;19910;-79
2023/07/20 10:03:51;;;;;;;;;;;23.10;79.40;;;;;;4973149;28;19942;-79
2023/07/20 10:06:20;;;;;;;;;;;23.40;79.20;;;;;;4955555;28;19910;-79
2023/07/20 10:08:47;;;;;;;;;;;23.60;78.60;;;;;;4972245;28;20363;-79
2023/07/20 10:11:15;;;;;;;;;;;23.60;78.30;;;;;;4973169;28;19956;-78
2023/07/20 10:13:40;;;;;;;;;;;23.60;78.30;;;;;;4938741;28;19981;-79
2023/07/20 10:16:09;;;;;;;;;;;23.70;78.20;;;;;;4972669;28;20517;-79
2023/07/20 10:18:35;;;;;;;;;;;23.70;78.00;;;;;;4971133;28;20367;-78
2023/07/20 10:21:01;;;;;;;;;;;23.70;77.70;;;;;;4972187;28;19941;-78
2023/07/20 10:23:28;;;;;;;;;;;23.80;77.90;;;;;;4972435;28;19914;-79
2023/07/20 10:25:54;;;;;;;;;;;24.20;77.80;;;;;;4971904;28;19910;-76
2023/07/20 10:28:20;;;;;;;;;;;24.60;78.60;;;;;;4972065;28;19922;-79
2023/07/20 10:30:46;;;;;;;;;;;25.10;78.40;;;;;;4971546;28;20556;-79
2023/07/20 10:33:12;;;;;;;;;;;25.60;77.90;;;;;;4971773;28;20005;-79
2023/07/20 10:35:50;;;;;;;;;;;25.80;77.40;;;;;;4971246;28;19918;-79
2023/07/20 10:38:16;;;;;;;;;;;26.00;77.50;;;;;;4972010;28;19910;-79
2023/07/20 10:40:42;;;;;;;;;;;26.20;77.10;;;;;;4971182;28;19937;-78
2023/07/20 10:43:08;;;;;;;;;;;26.00;76.70;;;;;;4954404;28;19919;-77
2023/07/20 10:45:42;;;;;;;;;;;25.80;76.50;;;;;;4952549;28;19961;-78
2023/07/20 10:48:17;;;;;;;;;;;25.30;76.10;;;;;;4971404;28;20367;-77
2023/07/20 10:50:43;;;;;;;;;;;24.90;76.10;;;;;;4971952;28;20279;-77
2023/07/20 10:53:16;;;;;;;;;;;24.40;76.00;;;;;;4971658;28;19914;-77
2023/07/20 10:55:43;;;;;;;;;;;23.90;76.20;;;;;;4967446;28;20417;-76
2023/07/20 10:58:10;;;;;;;;;;;23.50;76.50;;;;;;4954515;28;20052;-77
2023/07/20 11:00:36;;;;;;;;;;;23.20;76.70;;;;;;4953827;28;19918;-77
2023/07/20 11:03:02;;;;;;;;;;;23.00;76.80;;;;;;4973198;28;19965;-77
2023/07/20 11:05:37;;;;;;;;;;;22.90;77.10;;;;;;4974586;28;20278;-77
2023/07/20 11:08:04;;;;;;;;;;;23.00;77.30;;;;;;4971275;28;19917;-77
2023/07/20 11:10:29;;;;;;;;;;;23.30;77.30;;;;;;4971252;28;19914;-76
2023/07/20 11:13:13;;;;;;;;;;;23.40;77.50;;;;;;4971500;28;20274;-77
2023/07/20 11:15:59;;;;;;;;;;;23.60;78.20;;;;;;4971239;28;19976;-76
2023/07/20 11:18:28;;;;;;;;;;;24.10;78.30;;;;;;4971295;28;19911;-77
2023/07/20 11:20:53;;;;;;;;;;;25.10;78.70;;;;;;4985657;28;19914;-76
2023/07/20 11:23:22;;;;;;;;;;;26.10;78.70;;;;;;4970956;28;19914;-77
2023/07/20 11:25:49;;;;;;;;;;;27.00;78.70;;;;;;4970954;28;19910;-77
2023/07/20 11:28:15;;;;;;;;;;;27.90;78.30;;;;;;4971525;28;20001;-77
2023/07/20 11:30:41;;;;;;;;;;;28.30;77.40;;;;;;4970782;28;19914;-76
2023/07/20 11:33:09;;;;;;;;;;;28.10;76.80;;;;;;4970953;28;19957;-77
2023/07/20 11:35:36;;;;;;;;;;;27.40;76.40;;;;;;4970616;28;20438;-76
2023/07/20 11:38:02;;;;;;;;;;;26.70;77.20;;;;;;4970168;28;19910;-77
2023/07/20 11:40:27;;;;;;;;;;;26.40;77.40;;;;;;4970545;28;19914;-76
2023/07/20 11:42:53;;;;;;;;;;;26.20;77.30;;;;;;4970560;28;19938;-76
2023/07/20 11:45:19;;;;;;;;;;;26.00;77.00;;;;;;4970244;28;20522;-75
2023/07/20 11:47:45;;;;;;;;;;;25.90;76.80;;;;;;4970109;28;19914;-76
2023/07/20 11:50:13;;;;;;;;;;;25.60;76.80;;;;;;4971055;28;20589;-76
2023/07/20 11:52:40;;;;;;;;;;;25.40;76.80;;;;;;4970293;28;19957;-75
2023/07/20 11:55:06;;;;;;;;;;;25.20;76.50;;;;;;4969981;28;20361;-74
2023/07/20 11:57:32;;;;;;;;;;;25.00;76.60;;;;;;4970866;28;19933;-77
2023/07/20 11:59:59;;;;;;;;;;;24.90;76.70;;;;;;4973876;28;19918;-76
2023/07/20 12:02:26;;;;;;;;;;;24.60;76.60;;;;;;4974621;28;19916;-76
2023/07/20 12:04:53;;;;;;;;;;;24.20;77.10;;;;;;4956642;28;19913;-75
2023/07/20 12:07:19;;;;;;;;;;;24.00;77.50;;;;;;4974147;28;20537;-74
2023/07/20 12:10:02;;;;;;;;;;;23.90;77.70;;;;;;4971945;28;19922;-77
2023/07/20 12:12:28;;;;;;;;;;;24.00;78.00;;;;;;4974047;28;20020;-75
2023/07/20 12:14:53;;;;;;;;;;;24.30;77.70;;;;;;4986656;28;20016;-76
2023/07/20 12:17:19;;;;;;;;;;;24.60;77.70;;;;;;4973940;28;19918;-75
2023/07/20 12:19:45;;;;;;;;;;;25.00;77.20;;;;;;4957209;28;19922;-77
2023/07/20 12:22:12;;;;;;;;;;;25.30;77.10;;;;;;4973730;28;20646;-77
2023/07/20 12:24:37;;;;;;;;;;;25.80;76.90;;;;;;4941856;28;20367;-77
2023/07/20 12:27:03;;;;;;;;;;;26.10;76.80;;;;;;4956773;28;19914;-77
2023/07/20 12:29:29;;;;;;;;;;;26.40;76.50;;;;;;4973452;28;19961;-77
2023/07/20 12:31:54;;;;;;;;;;;26.70;76.60;;;;;;4955970;28;19922;-75
2023/07/20 12:34:20;;;;;;;;;;;26.90;76.50;;;;;;4978415;28;19914;-77
2023/07/20 12:36:46;;;;;;;;;;;27.00;76.20;;;;;;4973004;28;19938;-75
2023/07/20 12:39:11;;;;;;;;;;;27.00;76.10;;;;;;4955399;28;20446;-75
2023/07/20 12:41:37;;;;;;;;;;;26.60;75.70;;;;;;4972992;28;19921;-77
2023/07/20 12:44:02;;;;;;;;;;;26.20;75.60;;;;;;4972742;28;19915;-75
2023/07/20 12:46:29;;;;;;;;;;;25.70;75.50;;;;;;4957123;28;19973;-74
2023/07/20 12:48:55;;;;;;;;;;;25.30;75.70;;;;;;4973437;28;19921;-75
2023/07/20 12:51:21;;;;;;;;;;;24.90;76.00;;;;;;4972954;28;19910;-75
2023/07/20 12:53:46;;;;;;;;;;;24.60;76.10;;;;;;4956066;28;20235;-75
2023/07/20 12:56:12;;;;;;;;;;;24.30;76.30;;;;;;4973221;28;20012;-76
2023/07/20 12:58:38;;;;;;;;;;;24.10;76.40;;;;;;4973113;28;19916;-75
2023/07/20 13:01:04;;;;;;;;;;;24.00;76.50;;;;;;4973212;28;20001;-74
2023/07/20 13:03:30;;;;;;;;;;;23.90;76.60;;;;;;4973999;28;19977;-75
2023/07/20 13:05:55;;;;;;;;;;;23.90;76.60;;;;;;4972768;28;19999;-75
2023/07/20 13:08:25;;;;;;;;;;;23.90;76.50;;;;;;4967373;28;19921;-75
2023/07/20 13:10:51;;;;;;;;;;;23.90;76.40;;;;;;4973229;28;19918;-75
2023/07/20 13:13:17;;;;;;;;;;;24.00;76.40;;;;;;4955365;28;20358;-76
2023/07/20 13:15:43;;;;;;;;;;;24.10;76.20;;;;;;4955646;28;19962;-76
2023/07/20 13:18:09;;;;;;;;;;;24.00;75.80;;;;;;4957790;28;19911;-76
2023/07/20 13:20:34;;;;;;;;;;;23.70;75.20;;;;;;4953772;29;19914;-76
2023/07/20 13:23:00;;;;;;;;;;;23.30;75.30;;;;;;4935422;29;20364;-74
2023/07/20 13:25:25;;;;;;;;;;;22.90;75.60;;;;;;4953783;28;19990;-75
2023/07/20 13:27:51;;;;;;;;;;;22.70;75.90;;;;;;4937460;29;19922;-75
2023/07/20 13:30:16;;;;;;;;;;;22.40;76.10;;;;;;4951553;29;19922;-76
2023/07/20 13:32:45;;;;;;;;;;;22.30;76.20;;;;;;4950960;28;20075;-74
2023/07/20 13:35:11;;;;;;;;;;;22.10;76.60;;;;;;4954947;28;20016;-76
2023/07/20 13:37:37;;;;;;;;;;;21.90;76.40;;;;;;4973010;28;20017;-76
2023/07/20 13:40:05;;;;;;;;;;;21.80;76.60;;;;;;4987337;28;20008;-75
2023/07/20 13:42:30;;;;;;;;;;;21.70;76.80;;;;;;4972644;28;20000;-75
2023/07/20 13:44:56;;;;;;;;;;;21.60;77.10;;;;;;4972533;28;20054;-75
2023/07/20 13:47:22;;;;;;;;;;;21.60;77.00;;;;;;4972904;28;20383;-76
2023/07/20 13:49:47;;;;;;;;;;;21.50;77.20;;;;;;4972405;28;19914;-75
2023/07/20 13:52:13;;;;;;;;;;;21.50;77.30;;;;;;4972669;28;19921;-76
2023/07/20 13:54:38;;;;;;;;;;;21.50;77.40;;;;;;4972357;28;20009;-76
2023/07/20 13:57:04;;;;;;;;;;;21.60;77.60;;;;;;4972344;28;19910;-75
2023/07/20 13:59:30;;;;;;;;;;;21.80;77.90;;;;;;4972443;28;20596;-75
2023/07/20 14:01:55;;;;;;;;;;;22.20;78.00;;;;;;4972214;28;19918;-76
2023/07/20 14:04:21;;;;;;;;;;;22.70;77.50;;;;;;4970038;28;19926;-75
2023/07/20 14:06:47;;;;;;;;;;;23.10;77.30;;;;;;4971619;28;19910;-74
2023/07/20 14:09:12;;;;;;;;;;;23.50;77.00;;;;;;4954722;28;19941;-75
2023/07/20 14:11:38;;;;;;;;;;;24.00;77.00;;;;;;4971761;28;19918;-74